Time,TemperatureF,DewpointF,PressureIn,WindDirection,WindDirectionDegrees,WindSpeedMPH,WindSpeedGustMPH,Humidity,HourlyPrecipIn,Conditions,Clouds,dailyrainin,SoftwareType,DateUTC
2013-01-07 00:04:00,46.5,43.7,30.04,SE,130,0.0,0.0,90,0.00,,,0.00,Wunderground v.1.15,2013-01-07 08:04:00,
2013-01-07 00:10:00,46.2,43.4,30.04,SE,130,0.0,0.0,90,0.00,,,0.00,Wunderground v.1.15,2013-01-07 08:10:00,
2013-01-07 00:16:00,46.0,43.2,30.04,SE,129,0.0,0.0,90,0.00,,,0.00,Wunderground v.1.15,2013-01-07 08:16:00,
2013-01-07 00:22:00,45.8,43.3,30.04,SE,129,0.0,0.0,91,0.00,,,0.00,Wunderground v.1.15,2013-01-07 08:22:00,
2013-01-07 00:28:00,45.7,43.2,30.04,SE,130,0.0,0.0,91,0.00,,,0.00,Wunderground v.1.15,2013-01-07 08:28:00,
2013-01-07 00:34:00,45.5,43.0,30.03,SE,130,0.0,0.0,91,0.00,,,0.00,Wunderground v.1.15,2013-01-07 08:34:00,
2013-01-07 00:40:00,45.5,43.3,30.03,SE,130,0.0,0.0,92,0.00,,,0.00,Wunderground v.1.15,2013-01-07 08:40:00,
2013-01-07 00:46:00,45.4,43.2,30.03,SE,130,0.0,1.0,92,0.00,,,0.00,Wunderground v.1.15,2013-01-07 08:46:00,
2013-01-07 00:52:00,45.2,42.7,30.03,SE,129,0.0,0.0,91,0.00,,,0.00,Wunderground v.1.15,2013-01-07 08:52:00,
2013-01-07 00:58:00,44.9,42.4,30.03,SE,129,0.0,0.0,91,0.00,,,0.00,Wunderground v.1.15,2013-01-07 08:58:00,
2013-01-07 01:04:00,44.7,42.2,30.02,SE,130,0.0,0.0,91,0.00,,,0.00,Wunderground v.1.15,2013-01-07 09:04:00,
2013-01-07 01:10:00,44.6,42.4,30.02,SE,130,0.0,0.0,92,0.00,,,0.00,Wunderground v.1.15,2013-01-07 09:10:00,
2013-01-07 01:16:00,44.5,42.3,30.02,SE,129,0.0,0.0,92,0.00,,,0.00,Wunderground v.1.15,2013-01-07 09:16:00,
2013-01-07 01:22:00,44.3,42.1,30.02,SE,129,0.0,1.0,92,0.00,,,0.00,Wunderground v.1.15,2013-01-07 09:22:00,
2013-01-07 01:28:00,44.1,41.9,30.03,SE,129,0.0,1.0,92,0.00,,,0.00,Wunderground v.1.15,2013-01-07 09:28:00,
2013-01-07 01:34:00,44.0,42.1,30.03,SE,130,0.0,1.0,93,0.00,,,0.00,Wunderground v.1.15,2013-01-07 09:34:00,
2013-01-07 01:40:00,43.9,42.0,30.02,SE,130,0.0,0.0,93,0.00,,,0.00,Wunderground v.1.15,2013-01-07 09:40:00,
2013-01-07 01:46:00,43.7,41.8,30.02,SE,129,1.0,1.0,93,0.00,,,0.00,Wunderground v.1.15,2013-01-07 09:46:00,
2013-01-07 01:52:00,43.5,41.6,30.02,SE,129,1.0,1.0,93,0.00,,,0.00,Wunderground v.1.15,2013-01-07 09:52:00,
2013-01-07 01:58:00,43.6,42.0,30.02,SE,129,0.0,1.0,94,0.00,,,0.00,Wunderground v.1.15,2013-01-07 09:58:00,
2013-01-07 02:04:00,43.4,41.5,30.02,SE,129,0.0,0.0,93,0.00,,,0.00,Wunderground v.1.15,2013-01-07 10:04:00,
2013-01-07 02:10:00,43.3,41.4,30.02,SE,129,0.0,0.0,93,0.00,,,0.00,Wunderground v.1.15,2013-01-07 10:10:00,
2013-01-07 02:16:00,43.0,41.1,30.02,SE,129,0.0,1.0,93,0.00,,,0.00,Wunderground v.1.15,2013-01-07 10:16:00,
2013-01-07 02:22:00,42.8,40.9,30.02,SE,129,1.0,1.0,93,0.00,,,0.00,Wunderground v.1.15,2013-01-07 10:22:00,
2013-01-07 02:28:00,42.6,40.7,30.02,SE,129,0.0,1.0,93,0.00,,,0.00,Wunderground v.1.15,2013-01-07 10:28:00,
2013-01-07 02:34:00,42.4,40.5,30.02,SE,129,0.0,0.0,93,0.00,,,0.00,Wunderground v.1.15,2013-01-07 10:34:00,
2013-01-07 02:40:00,42.3,40.4,30.02,SE,129,0.0,0.0,93,0.00,,,0.00,Wunderground v.1.15,2013-01-07 10:40:00,
2013-01-07 02:46:00,42.0,40.4,30.02,SE,129,0.0,1.0,94,0.00,,,0.00,Wunderground v.1.15,2013-01-07 10:46:00,
2013-01-07 02:52:00,41.9,40.3,30.03,SE,129,0.0,0.0,94,0.00,,,0.00,Wunderground v.1.15,2013-01-07 10:52:00,
2013-01-07 02:58:00,41.9,40.3,30.02,SE,129,0.0,0.0,94,0.00,,,0.00,Wunderground v.1.15,2013-01-07 10:58:00,
2013-01-07 03:04:00,41.9,40.3,30.02,SE,129,0.0,0.0,94,0.00,,,0.00,Wunderground v.1.15,2013-01-07 11:04:00,
2013-01-07 03:10:00,41.6,40.0,30.02,SE,129,0.0,0.0,94,0.00,,,0.00,Wunderground v.1.15,2013-01-07 11:10:00,
2013-01-07 03:16:00,42.2,41.1,30.02,SE,129,0.0,0.0,96,0.00,,,0.00,Wunderground v.1.15,2013-01-07 11:16:00,
2013-01-07 03:22:00,42.2,40.9,30.02,SE,129,0.0,0.0,95,0.00,,,0.00,Wunderground v.1.15,2013-01-07 11:22:00,
2013-01-07 03:28:00,41.7,40.1,30.01,SE,129,0.0,0.0,94,0.00,,,0.00,Wunderground v.1.15,2013-01-07 11:28:00,
2013-01-07 03:34:00,41.5,39.9,30.01,SE,129,0.0,1.0,94,0.00,,,0.00,Wunderground v.1.15,2013-01-07 11:34:00,
2013-01-07 03:40:00,41.4,39.8,30.02,SE,130,1.0,1.0,94,0.00,,,0.00,Wunderground v.1.15,2013-01-07 11:40:00,
2013-01-07 03:46:00,41.1,39.5,30.02,SE,129,1.0,1.0,94,0.00,,,0.00,Wunderground v.1.15,2013-01-07 11:46:00,
2013-01-07 03:52:00,40.8,39.2,30.02,ESE,112,1.0,1.0,94,0.00,,,0.00,Wunderground v.1.15,2013-01-07 11:52:00,
2013-01-07 03:58:00,40.7,39.1,30.02,ESE,112,1.0,1.0,94,0.00,,,0.00,Wunderground v.1.15,2013-01-07 11:58:00,
2013-01-07 04:04:00,40.5,38.9,30.01,ESE,112,1.0,1.0,94,0.00,,,0.00,Wunderground v.1.15,2013-01-07 12:04:00,
2013-01-07 04:10:00,40.4,38.8,30.01,ESE,112,1.0,2.0,94,0.00,,,0.00,Wunderground v.1.15,2013-01-07 12:10:00,
2013-01-07 04:16:00,40.5,39.2,30.02,East,87,1.0,3.0,95,0.00,,,0.00,Wunderground v.1.15,2013-01-07 12:16:00,
2013-01-07 04:22:00,40.6,39.3,30.02,East,87,2.0,2.0,95,0.00,,,0.00,Wunderground v.1.15,2013-01-07 12:22:00,
2013-01-07 04:28:00,40.6,39.3,30.02,East,87,1.0,2.0,95,0.00,,,0.00,Wunderground v.1.15,2013-01-07 12:28:00,
2013-01-07 04:34:00,40.7,39.4,30.02,East,87,0.0,2.0,95,0.00,,,0.00,Wunderground v.1.15,2013-01-07 12:34:00,
2013-01-07 04:40:00,41.0,39.7,30.02,East,86,1.0,1.0,95,0.00,,,0.00,Wunderground v.1.15,2013-01-07 12:40:00,
2013-01-07 04:46:00,41.0,39.7,30.03,East,86,0.0,1.0,95,0.00,,,0.00,Wunderground v.1.15,2013-01-07 12:46:00,
2013-01-07 04:52:00,40.9,39.6,30.03,East,86,0.0,0.0,95,0.00,,,0.00,Wunderground v.1.15,2013-01-07 12:52:00,
2013-01-07 04:58:00,41.1,39.8,30.03,East,86,0.0,1.0,95,0.00,,,0.00,Wunderground v.1.15,2013-01-07 12:58:00,
2013-01-07 05:04:00,40.7,39.1,30.04,East,86,1.0,1.0,94,0.00,,,0.00,Wunderground v.1.15,2013-01-07 13:04:00,
2013-01-07 05:10:00,40.4,39.1,30.03,East,86,1.0,1.0,95,0.00,,,0.00,Wunderground v.1.15,2013-01-07 13:10:00,
2013-01-07 05:16:00,40.2,38.9,30.03,ESE,115,1.0,2.0,95,0.00,,,0.00,Wunderground v.1.15,2013-01-07 13:16:00,
2013-01-07 05:22:00,39.9,38.3,30.03,NE,54,1.0,2.0,94,0.00,,,0.00,Wunderground v.1.15,2013-01-07 13:22:00,
2013-01-07 05:28:00,39.8,38.5,30.04,NNE,27,1.0,2.0,95,0.00,,,0.00,Wunderground v.1.15,2013-01-07 13:28:00,
2013-01-07 05:34:00,39.7,38.4,30.04,NNE,27,1.0,1.0,95,0.00,,,0.00,Wunderground v.1.15,2013-01-07 13:34:00,
2013-01-07 05:40:00,39.6,38.3,30.05,North,5,1.0,2.0,95,0.00,,,0.00,Wunderground v.1.15,2013-01-07 13:40:00,
2013-01-07 05:46:00,39.7,38.4,30.05,NNW,331,1.0,2.0,95,0.00,,,0.00,Wunderground v.1.15,2013-01-07 13:46:00,
2013-01-07 05:52:00,39.7,38.4,30.06,NNW,331,0.0,1.0,95,0.00,,,0.00,Wunderground v.1.15,2013-01-07 13:52:00,
2013-01-07 05:58:00,39.6,38.3,30.06,NNW,331,1.0,1.0,95,0.00,,,0.00,Wunderground v.1.15,2013-01-07 13:58:00,
2013-01-07 06:04:00,39.4,38.1,30.06,NNW,331,0.0,1.0,95,0.00,,,0.00,Wunderground v.1.15,2013-01-07 14:04:00,
2013-01-07 06:10:00,39.4,38.1,30.07,NNW,331,0.0,0.0,95,0.00,,,0.00,Wunderground v.1.15,2013-01-07 14:10:00,
2013-01-07 06:16:00,39.3,38.0,30.07,NNW,331,1.0,2.0,95,0.00,,,0.00,Wunderground v.1.15,2013-01-07 14:16:00,
2013-01-07 06:22:00,39.3,38.0,30.06,NNW,331,1.0,2.0,95,0.00,,,0.00,Wunderground v.1.15,2013-01-07 14:22:00,
2013-01-07 06:28:00,39.2,37.9,30.07,NNW,331,1.0,2.0,95,0.00,,,0.00,Wunderground v.1.15,2013-01-07 14:28:00,
2013-01-07 06:34:00,39.3,38.3,30.07,NNW,331,0.0,1.0,96,0.00,,,0.00,Wunderground v.1.15,2013-01-07 14:34:00,
2013-01-07 06:40:00,39.6,38.6,30.07,NNW,331,0.0,0.0,96,0.00,,,0.00,Wunderground v.1.15,2013-01-07 14:40:00,
2013-01-07 06:46:00,39.4,38.4,30.07,NNW,331,0.0,1.0,96,0.00,,,0.00,Wunderground v.1.15,2013-01-07 14:46:00,
2013-01-07 06:52:00,39.3,38.3,30.07,NNW,331,0.0,1.0,96,0.00,,,0.00,Wunderground v.1.15,2013-01-07 14:52:00,
2013-01-07 06:58:00,39.1,37.8,30.08,NNW,331,0.0,1.0,95,0.00,,,0.00,Wunderground v.1.15,2013-01-07 14:58:00,
2013-01-07 07:04:00,38.8,37.5,30.08,NNW,331,0.0,1.0,95,0.00,,,0.00,Wunderground v.1.15,2013-01-07 15:04:00,
2013-01-07 07:10:00,38.6,37.3,30.08,NNE,15,0.0,0.0,95,0.00,,,0.00,Wunderground v.1.15,2013-01-07 15:10:00,
2013-01-07 07:16:00,38.5,37.2,30.08,NNE,15,0.0,1.0,95,0.00,,,0.00,Wunderground v.1.15,2013-01-07 15:16:00,
2013-01-07 07:22:00,38.5,37.5,30.09,NNE,15,0.0,1.0,96,0.00,,,0.00,Wunderground v.1.15,2013-01-07 15:22:00,
2013-01-07 07:28:00,38.6,37.6,30.09,NNE,15,0.0,1.0,96,0.00,,,0.00,Wunderground v.1.15,2013-01-07 15:28:00,
2013-01-07 07:34:00,38.9,37.9,30.10,NW,316,1.0,2.0,96,0.00,,,0.00,Wunderground v.1.15,2013-01-07 15:34:00,
2013-01-07 07:40:00,39.4,38.6,30.10,NW,313,1.0,1.0,97,0.00,,,0.00,Wunderground v.1.15,2013-01-07 15:40:00,
2013-01-07 07:46:00,40.4,39.6,30.10,NW,313,0.0,2.0,97,0.00,,,0.00,Wunderground v.1.15,2013-01-07 15:46:00,
2013-01-07 07:52:00,40.7,39.9,30.10,NW,313,1.0,1.0,97,0.00,,,0.00,Wunderground v.1.15,2013-01-07 15:52:00,
2013-01-07 07:58:00,41.1,40.3,30.10,NW,313,0.0,1.0,97,0.00,,,0.00,Wunderground v.1.15,2013-01-07 15:58:00,
2013-01-07 08:04:00,41.6,40.8,30.10,WNW,298,1.0,2.0,97,0.00,,,0.00,Wunderground v.1.15,2013-01-07 16:04:00,
2013-01-07 08:10:00,42.3,41.5,30.10,WNW,298,1.0,1.0,97,0.00,,,0.00,Wunderground v.1.15,2013-01-07 16:10:00,
2013-01-07 08:16:00,43.2,42.4,30.10,WNW,298,1.0,2.0,97,0.00,,,0.00,Wunderground v.1.15,2013-01-07 16:16:00,
2013-01-07 08:22:00,44.0,42.9,30.10,WNW,298,1.0,1.0,96,0.00,,,0.00,Wunderground v.1.15,2013-01-07 16:22:00,
2013-01-07 08:28:00,44.9,43.6,30.11,NW,319,1.0,2.0,95,0.00,,,0.00,Wunderground v.1.15,2013-01-07 16:28:00,
2013-01-07 08:34:00,46.0,43.8,30.11,NW,319,1.0,2.0,92,0.00,,,0.00,Wunderground v.1.15,2013-01-07 16:34:00,
2013-01-07 08:40:00,47.0,44.2,30.11,NE,51,2.0,2.0,90,0.00,,,0.00,Wunderground v.1.15,2013-01-07 16:40:00,
2013-01-07 08:46:00,47.8,44.7,30.11,NE,51,1.0,2.0,89,0.00,,,0.00,Wunderground v.1.15,2013-01-07 16:46:00,
2013-01-07 08:52:00,48.8,45.4,30.11,NE,51,0.0,1.0,88,0.00,,,0.00,Wunderground v.1.15,2013-01-07 16:52:00,
2013-01-07 08:58:00,49.8,44.8,30.11,NE,51,0.0,1.0,83,0.00,,,0.00,Wunderground v.1.15,2013-01-07 16:58:00,
2013-01-07 09:04:00,50.4,44.8,30.11,South,171,0.0,2.0,81,0.00,,,0.00,Wunderground v.1.15,2013-01-07 17:04:00,
2013-01-07 09:10:00,50.5,44.2,30.11,South,171,1.0,2.0,79,0.00,,,0.00,Wunderground v.1.15,2013-01-07 17:10:00,
2013-01-07 09:16:00,50.6,44.0,30.11,South,171,1.0,2.0,78,0.00,,,0.00,Wunderground v.1.15,2013-01-07 17:16:00,
2013-01-07 09:22:00,51.1,44.5,30.11,South,171,1.0,1.0,78,0.00,,,0.00,Wunderground v.1.15,2013-01-07 17:22:00,
2013-01-07 09:28:00,52.0,44.7,30.11,South,171,1.0,2.0,76,0.00,,,0.00,Wunderground v.1.15,2013-01-07 17:28:00,
2013-01-07 09:34:00,52.7,44.6,30.11,SSE,156,1.0,3.0,74,0.00,,,0.00,Wunderground v.1.15,2013-01-07 17:34:00,
2013-01-07 09:40:00,53.5,44.0,30.11,SSW,198,1.0,2.0,70,0.00,,,0.00,Wunderground v.1.15,2013-01-07 17:40:00,
2013-01-07 09:46:00,53.7,44.5,30.11,SSW,202,2.0,3.0,71,0.00,,,0.00,Wunderground v.1.15,2013-01-07 17:46:00,
2013-01-07 09:52:00,54.3,44.7,30.11,East,86,1.0,2.0,70,0.00,,,0.00,Wunderground v.1.15,2013-01-07 17:52:00,
2013-01-07 09:58:00,55.0,44.2,30.11,East,88,1.0,3.0,67,0.00,,,0.00,Wunderground v.1.15,2013-01-07 17:58:00,
2013-01-07 10:04:00,55.6,43.6,30.11,East,86,1.0,2.0,64,0.00,,,0.00,Wunderground v.1.15,2013-01-07 18:04:00,
2013-01-07 10:10:00,55.9,43.1,30.11,SSE,166,1.0,1.0,62,0.00,,,0.00,Wunderground v.1.15,2013-01-07 18:10:00,
2013-01-07 10:16:00,56.9,42.3,30.11,SSE,164,1.0,2.0,58,0.00,,,0.00,Wunderground v.1.15,2013-01-07 18:16:00,
2013-01-07 10:22:00,57.8,44.0,30.10,ESE,110,1.0,4.0,60,0.00,,,0.00,Wunderground v.1.15,2013-01-07 18:22:00,
2013-01-07 10:28:00,58.2,44.4,30.10,ESE,110,1.0,4.0,60,0.00,,,0.00,Wunderground v.1.15,2013-01-07 18:28:00,
2013-01-07 11:09:00,60.4,41.1,30.08,SE,129,2.0,2.0,49,0.00,,,0.00,Wunderground v.1.15,2013-01-07 19:09:00,
2013-01-07 11:14:00,60.7,40.9,30.08,ESE,107,1.0,2.0,48,0.00,,,0.00,Wunderground v.1.15,2013-01-07 19:14:00,
2013-01-07 11:20:00,60.9,40.5,30.08,SSE,149,2.0,2.0,47,0.00,,,0.00,Wunderground v.1.15,2013-01-07 19:20:00,
2013-01-07 11:26:00,61.3,39.2,30.07,SSW,192,2.0,3.0,44,0.00,,,0.00,Wunderground v.1.15,2013-01-07 19:26:00,
2013-01-07 11:32:00,61.4,37.5,30.07,South,180,3.0,3.0,41,0.00,,,0.00,Wunderground v.1.15,2013-01-07 19:32:00,
2013-01-07 11:38:00,61.5,37.6,30.06,SE,142,3.0,3.0,41,0.00,,,0.00,Wunderground v.1.15,2013-01-07 19:38:00,
2013-01-07 11:44:00,62.1,36.8,30.06,South,177,3.0,4.0,39,0.00,,,0.00,Wunderground v.1.15,2013-01-07 19:44:00,
2013-01-07 11:50:00,62.0,36.1,30.05,South,191,3.0,4.0,38,0.00,,,0.00,Wunderground v.1.15,2013-01-07 19:50:00,
2013-01-07 11:56:00,62.1,36.2,30.05,SE,138,4.0,5.0,38,0.00,,,0.00,Wunderground v.1.15,2013-01-07 19:56:00,
2013-01-07 12:02:00,62.2,38.2,30.05,SSW,202,4.0,7.0,41,0.00,,,0.00,Wunderground v.1.15,2013-01-07 20:02:00,
2013-01-07 12:08:00,62.3,37.0,30.04,South,180,4.0,7.0,39,0.00,,,0.00,Wunderground v.1.15,2013-01-07 20:08:00,
2013-01-07 12:14:00,62.8,37.5,30.03,South,188,4.0,5.0,39,0.00,,,0.00,Wunderground v.1.15,2013-01-07 20:14:00,
2013-01-07 12:20:00,63.3,35.9,30.03,South,171,5.0,5.0,36,0.00,,,0.00,Wunderground v.1.15,2013-01-07 20:20:00,
2013-01-07 12:26:00,63.9,36.4,30.02,SSE,159,5.0,7.0,36,0.00,,,0.00,Wunderground v.1.15,2013-01-07 20:26:00,
2013-01-07 12:28:00,64.0,35.8,30.02,SSE,168,5.0,7.0,35,0.00,,,0.00,Wunderground v.1.15,2013-01-07 20:28:00,
2013-01-07 12:34:00,64.4,35.4,30.02,SSE,148,4.0,5.0,34,0.00,,,0.00,Wunderground v.1.15,2013-01-07 20:34:00,
2013-01-07 12:40:00,64.8,35.8,30.01,South,188,4.0,4.0,34,0.00,,,0.00,Wunderground v.1.15,2013-01-07 20:40:00,
2013-01-07 12:46:00,65.2,35.4,30.02,SSE,165,4.0,5.0,33,0.00,,,0.00,Wunderground v.1.15,2013-01-07 20:46:00,
2013-01-07 12:52:00,65.0,35.2,30.01,South,178,5.0,7.0,33,0.00,,,0.00,Wunderground v.1.15,2013-01-07 20:52:00,
2013-01-07 12:58:00,64.9,36.6,30.01,WSW,254,5.0,7.0,35,0.00,,,0.00,Wunderground v.1.15,2013-01-07 20:58:00,
2013-01-07 13:04:00,65.0,36.7,30.01,WSW,258,4.0,9.0,35,0.00,,,0.00,Wunderground v.1.15,2013-01-07 21:04:00,
2013-01-07 13:10:00,65.2,36.1,30.01,SW,220,5.0,5.0,34,0.00,,,0.00,Wunderground v.1.15,2013-01-07 21:10:00,
2013-01-07 13:16:00,65.7,35.8,30.01,SSW,212,5.0,7.0,33,0.00,,,0.00,Wunderground v.1.15,2013-01-07 21:16:00,
2013-01-07 13:22:00,66.2,37.0,30.00,WSW,237,4.0,5.0,34,0.00,,,0.00,Wunderground v.1.15,2013-01-07 21:22:00,
2013-01-07 13:28:00,66.2,37.7,30.00,SW,227,5.0,7.0,35,0.00,,,0.00,Wunderground v.1.15,2013-01-07 21:28:00,
2013-01-07 13:34:00,65.7,36.5,30.00,SSW,209,5.0,8.0,34,0.00,,,0.00,Wunderground v.1.15,2013-01-07 21:34:00,
2013-01-07 13:40:00,65.6,36.5,29.99,SW,233,4.0,4.0,34,0.00,,,0.00,Wunderground v.1.15,2013-01-07 21:40:00,
2013-01-07 13:46:00,65.7,35.8,29.99,WSW,253,4.0,8.0,33,0.00,,,0.00,Wunderground v.1.15,2013-01-07 21:46:00,
2013-01-07 13:52:00,65.4,37.0,29.99,South,184,5.0,7.0,35,0.00,,,0.00,Wunderground v.1.15,2013-01-07 21:52:00,
2013-01-07 13:58:00,65.0,36.7,29.99,SW,226,6.0,7.0,35,0.00,,,0.00,Wunderground v.1.15,2013-01-07 21:58:00,
2013-01-07 14:04:00,64.8,37.2,29.99,South,191,5.0,6.0,36,0.00,,,0.00,Wunderground v.1.15,2013-01-07 22:04:00,
2013-01-07 14:10:00,64.6,37.0,29.99,SSW,198,4.0,4.0,36,0.00,,,0.00,Wunderground v.1.15,2013-01-07 22:10:00,
2013-01-07 14:16:00,64.8,37.9,29.99,SW,219,4.0,5.0,37,0.00,,,0.00,Wunderground v.1.15,2013-01-07 22:16:00,
2013-01-07 14:22:00,64.5,36.9,29.99,SSW,203,5.0,7.0,36,0.00,,,0.00,Wunderground v.1.15,2013-01-07 22:22:00,
2013-01-07 14:28:00,64.2,37.4,29.99,SSW,207,5.0,7.0,37,0.00,,,0.00,Wunderground v.1.15,2013-01-07 22:28:00,
2013-01-07 14:34:00,64.4,36.8,29.99,South,178,4.0,5.0,36,0.00,,,0.00,Wunderground v.1.15,2013-01-07 22:34:00,
2013-01-07 14:40:00,65.0,37.4,29.99,SW,216,3.0,4.0,36,0.00,,,0.00,Wunderground v.1.15,2013-01-07 22:40:00,
2013-01-07 14:46:00,65.6,37.2,29.99,SSW,196,4.0,7.0,35,0.00,,,0.00,Wunderground v.1.15,2013-01-07 22:46:00,
2013-01-07 14:52:00,65.8,37.4,30.00,SW,220,5.0,5.0,35,0.00,,,0.00,Wunderground v.1.15,2013-01-07 22:52:00,
2013-01-07 14:58:00,66.4,37.2,30.00,South,188,4.0,6.0,34,0.00,,,0.00,Wunderground v.1.15,2013-01-07 22:58:00,
2013-01-07 15:04:00,66.4,37.2,30.00,SW,217,4.0,4.0,34,0.00,,,0.00,Wunderground v.1.15,2013-01-07 23:04:00,
2013-01-07 15:10:00,66.5,36.5,30.00,South,171,4.0,4.0,33,0.00,,,0.00,Wunderground v.1.15,2013-01-07 23:10:00,
2013-01-07 15:16:00,66.4,37.9,30.00,SSW,201,4.0,4.0,35,0.00,,,0.00,Wunderground v.1.15,2013-01-07 23:16:00,
2013-01-07 15:22:00,66.3,38.5,30.00,South,180,4.0,6.0,36,0.00,,,0.00,Wunderground v.1.15,2013-01-07 23:22:00,
2013-01-07 15:28:00,65.8,39.5,30.00,SSW,213,4.0,6.0,38,0.00,,,0.00,Wunderground v.1.15,2013-01-07 23:28:00,
2013-01-07 15:34:00,65.6,40.0,30.00,SSW,207,4.0,5.0,39,0.00,,,0.00,Wunderground v.1.15,2013-01-07 23:34:00,
2013-01-07 15:40:00,65.5,40.5,30.00,South,179,3.0,4.0,40,0.00,,,0.00,Wunderground v.1.15,2013-01-07 23:40:00,
2013-01-07 15:46:00,65.4,41.1,30.00,South,174,3.0,5.0,41,0.00,,,0.00,Wunderground v.1.15,2013-01-07 23:46:00,
2013-01-07 15:52:00,65.4,40.4,30.00,SSE,149,3.0,3.0,40,0.00,,,0.00,Wunderground v.1.15,2013-01-07 23:52:00,
2013-01-07 15:58:00,65.3,41.0,30.00,SSE,148,2.0,3.0,41,0.00,,,0.00,Wunderground v.1.15,2013-01-07 23:58:00,
2013-01-07 16:04:00,64.8,42.4,30.00,SE,146,2.0,3.0,44,0.00,,,0.00,Wunderground v.1.15,2013-01-08 00:04:00,
2013-01-07 16:10:00,64.3,42.5,30.00,SE,140,2.0,2.0,45,0.00,,,0.00,Wunderground v.1.15,2013-01-08 00:10:00,
2013-01-07 16:16:00,64.1,41.7,30.00,SE,134,2.0,3.0,44,0.00,,,0.00,Wunderground v.1.15,2013-01-08 00:16:00,
2013-01-07 16:22:00,63.9,41.0,30.00,SSE,154,2.0,5.0,43,0.00,,,0.00,Wunderground v.1.15,2013-01-08 00:22:00,
2013-01-07 16:28:00,63.7,40.8,30.00,SSE,157,2.0,5.0,43,0.00,,,0.00,Wunderground v.1.15,2013-01-08 00:28:00,
2013-01-07 16:34:00,63.4,41.1,30.00,SSW,196,2.0,3.0,44,0.00,,,0.00,Wunderground v.1.15,2013-01-08 00:34:00,
2013-01-07 16:40:00,63.1,40.2,30.00,SSE,149,2.0,2.0,43,0.00,,,0.00,Wunderground v.1.15,2013-01-08 00:40:00,
2013-01-07 16:46:00,62.8,40.5,30.00,SSE,149,1.0,2.0,44,0.00,,,0.00,Wunderground v.1.15,2013-01-08 00:46:00,
2013-01-07 16:52:00,62.5,40.9,30.00,SSE,149,1.0,1.0,45,0.00,,,0.00,Wunderground v.1.15,2013-01-08 00:52:00,
2013-01-07 16:58:00,62.1,41.1,30.00,SSE,149,1.0,1.0,46,0.00,,,0.00,Wunderground v.1.15,2013-01-08 00:58:00,
2013-01-07 17:04:00,61.6,41.2,30.00,SSE,149,0.0,0.0,47,0.00,,,0.00,Wunderground v.1.15,2013-01-08 01:04:00,
2013-01-07 17:10:00,60.9,41.6,30.00,SSE,149,0.0,0.0,49,0.00,,,0.00,Wunderground v.1.15,2013-01-08 01:10:00,
2013-01-07 17:16:00,60.2,41.5,30.00,SSE,149,0.0,1.0,50,0.00,,,0.00,Wunderground v.1.15,2013-01-08 01:16:00,
2013-01-07 17:22:00,59.5,41.3,30.00,SSE,149,0.0,0.0,51,0.00,,,0.00,Wunderground v.1.15,2013-01-08 01:22:00,
2013-01-07 17:28:00,59.0,41.4,30.00,SSE,149,0.0,1.0,52,0.00,,,0.00,Wunderground v.1.15,2013-01-08 01:28:00,
2013-01-07 17:34:00,58.4,41.3,30.00,SSE,149,1.0,1.0,53,0.00,,,0.00,Wunderground v.1.15,2013-01-08 01:34:00,
2013-01-07 17:40:00,58.0,41.4,30.01,SE,140,1.0,1.0,54,0.00,,,0.00,Wunderground v.1.15,2013-01-08 01:40:00,
2013-01-07 17:46:00,57.7,42.1,30.01,SE,140,1.0,1.0,56,0.00,,,0.00,Wunderground v.1.15,2013-01-08 01:46:00,
2013-01-07 17:52:00,57.4,42.7,30.00,SE,140,1.0,2.0,58,0.00,,,0.00,Wunderground v.1.15,2013-01-08 01:52:00,
2013-01-07 17:58:00,57.1,42.5,30.00,SE,134,1.0,2.0,58,0.00,,,0.00,Wunderground v.1.15,2013-01-08 01:58:00,
2013-01-07 18:04:00,56.9,43.2,30.01,SE,134,1.0,2.0,60,0.00,,,0.00,Wunderground v.1.15,2013-01-08 02:04:00,
2013-01-07 18:10:00,56.5,43.2,30.01,ESE,123,1.0,2.0,61,0.00,,,0.00,Wunderground v.1.15,2013-01-08 02:10:00,
2013-01-07 18:16:00,56.4,43.1,30.01,East,86,2.0,5.0,61,0.00,,,0.00,Wunderground v.1.15,2013-01-08 02:16:00,
2013-01-07 18:22:00,56.2,43.3,30.01,East,86,1.0,1.0,62,0.00,,,0.00,Wunderground v.1.15,2013-01-08 02:22:00,
2013-01-07 18:28:00,55.9,43.1,30.01,East,86,0.0,1.0,62,0.00,,,0.00,Wunderground v.1.15,2013-01-08 02:28:00,
2013-01-07 18:34:00,55.6,43.2,30.01,East,86,0.0,1.0,63,0.00,,,0.00,Wunderground v.1.15,2013-01-08 02:34:00,
2013-01-07 18:40:00,55.2,43.2,30.01,East,86,0.0,0.0,64,0.00,,,0.00,Wunderground v.1.15,2013-01-08 02:40:00,
2013-01-07 18:46:00,54.9,42.9,30.01,East,86,0.0,0.0,64,0.00,,,0.00,Wunderground v.1.15,2013-01-08 02:46:00,
2013-01-07 18:52:00,54.5,43.0,30.01,East,86,0.0,0.0,65,0.00,,,0.00,Wunderground v.1.15,2013-01-08 02:52:00,
2013-01-07 18:58:00,54.0,42.9,30.02,East,86,0.0,0.0,66,0.00,,,0.00,Wunderground v.1.15,2013-01-08 02:58:00,
2013-01-07 19:04:00,53.6,42.9,30.01,East,86,0.0,0.0,67,0.00,,,0.00,Wunderground v.1.15,2013-01-08 03:04:00,
2013-01-07 19:10:00,53.2,42.9,30.01,East,86,0.0,0.0,68,0.00,,,0.00,Wunderground v.1.15,2013-01-08 03:10:00,
2013-01-07 19:16:00,53.2,44.8,30.01,East,86,0.0,0.0,73,0.00,,,0.00,Wunderground v.1.15,2013-01-08 03:16:00,
2013-01-07 19:22:00,52.8,43.7,30.02,East,86,0.0,1.0,71,0.00,,,0.00,Wunderground v.1.15,2013-01-08 03:22:00,
2013-01-07 19:28:00,52.3,42.8,30.02,East,86,1.0,1.0,70,0.00,,,0.00,Wunderground v.1.15,2013-01-08 03:28:00,
2013-01-07 19:34:00,51.9,43.2,30.02,East,86,0.0,1.0,72,0.00,,,0.00,Wunderground v.1.15,2013-01-08 03:34:00,
2013-01-07 19:40:00,51.7,43.0,30.02,East,86,0.0,0.0,72,0.00,,,0.00,Wunderground v.1.15,2013-01-08 03:40:00,
2013-01-07 19:46:00,51.4,43.0,30.03,East,86,0.0,0.0,73,0.00,,,0.00,Wunderground v.1.15,2013-01-08 03:46:00,
2013-01-07 19:52:00,51.1,42.7,30.02,East,86,0.0,1.0,73,0.00,,,0.00,Wunderground v.1.15,2013-01-08 03:52:00,
2013-01-07 19:58:00,50.7,42.7,30.03,East,86,0.0,1.0,74,0.00,,,0.00,Wunderground v.1.15,2013-01-08 03:58:00,
2013-01-07 20:04:00,50.3,42.7,30.03,East,86,0.0,0.0,75,0.00,,,0.00,Wunderground v.1.15,2013-01-08 04:04:00,
2013-01-07 20:10:00,49.9,42.6,30.02,East,86,0.0,0.0,76,0.00,,,0.00,Wunderground v.1.15,2013-01-08 04:10:00,
2013-01-07 20:16:00,49.6,42.3,30.02,East,86,0.0,0.0,76,0.00,,,0.00,Wunderground v.1.15,2013-01-08 04:16:00,
2013-01-07 20:22:00,49.3,42.4,30.02,East,86,0.0,0.0,77,0.00,,,0.00,Wunderground v.1.15,2013-01-08 04:22:00,
2013-01-07 20:28:00,49.0,42.1,30.03,East,86,0.0,0.0,77,0.00,,,0.00,Wunderground v.1.15,2013-01-08 04:28:00,
2013-01-07 20:34:00,48.7,42.1,30.02,East,86,0.0,0.0,78,0.00,,,0.00,Wunderground v.1.15,2013-01-08 04:34:00,
2013-01-07 20:40:00,48.3,42.1,30.03,East,86,0.0,0.0,79,0.00,,,0.00,Wunderground v.1.15,2013-01-08 04:40:00,
2013-01-07 20:46:00,48.1,41.9,30.03,East,86,0.0,0.0,79,0.00,,,0.00,Wunderground v.1.15,2013-01-08 04:46:00,
2013-01-07 20:52:00,47.8,41.9,30.03,East,86,0.0,0.0,80,0.00,,,0.00,Wunderground v.1.15,2013-01-08 04:52:00,
2013-01-07 20:58:00,47.6,42.1,30.03,East,86,0.0,0.0,81,0.00,,,0.00,Wunderground v.1.15,2013-01-08 04:58:00,
2013-01-07 21:00:00,47.5,42.0,30.03,East,86,0.0,1.0,81,0.00,,,0.00,Wunderground v.1.15,2013-01-08 05:00:00,
2013-01-07 21:04:00,47.4,41.9,30.02,East,86,0.0,1.0,81,0.00,,,0.00,Wunderground v.1.15,2013-01-08 05:04:00,
2013-01-07 21:10:00,47.3,42.1,30.02,East,86,0.0,0.0,82,0.00,,,0.00,Wunderground v.1.15,2013-01-08 05:10:00,
2013-01-07 21:12:00,47.3,41.8,30.02,East,86,0.0,0.0,81,0.00,,,0.00,Wunderground v.1.15,2013-01-08 05:12:00,
2013-01-07 21:18:00,47.3,41.8,30.03,East,86,0.0,0.0,81,0.00,,,0.00,Wunderground v.1.15,2013-01-08 05:18:00,
2013-01-07 21:24:00,47.0,41.5,30.03,East,86,0.0,0.0,81,0.00,,,0.00,Wunderground v.1.15,2013-01-08 05:24:00,
2013-01-07 21:30:00,46.7,41.2,30.03,East,86,0.0,0.0,81,0.00,,,0.00,Wunderground v.1.15,2013-01-08 05:30:00,
2013-01-07 21:36:00,46.3,41.1,30.03,East,86,0.0,0.0,82,0.00,,,0.00,Wunderground v.1.15,2013-01-08 05:36:00,
2013-01-07 21:42:00,46.1,41.2,30.03,East,86,0.0,0.0,83,0.00,,,0.00,Wunderground v.1.15,2013-01-08 05:42:00,
2013-01-07 21:48:00,45.9,41.0,30.03,East,86,0.0,0.0,83,0.00,,,0.00,Wunderground v.1.15,2013-01-08 05:48:00,
2013-01-07 21:54:00,45.7,40.8,30.03,East,86,0.0,0.0,83,0.00,,,0.00,Wunderground v.1.15,2013-01-08 05:54:00,
2013-01-07 22:00:00,45.4,40.5,30.04,East,86,0.0,0.0,83,0.00,,,0.00,Wunderground v.1.15,2013-01-08 06:00:00,
2013-01-07 22:06:00,45.2,40.7,30.04,East,86,0.0,1.0,84,0.00,,,0.00,Wunderground v.1.15,2013-01-08 06:06:00,
2013-01-07 22:12:00,44.9,40.4,30.04,East,86,0.0,0.0,84,0.00,,,0.00,Wunderground v.1.15,2013-01-08 06:12:00,
2013-01-07 22:18:00,44.7,40.5,30.04,East,86,0.0,1.0,85,0.00,,,0.00,Wunderground v.1.15,2013-01-08 06:18:00,
2013-01-07 22:24:00,44.6,40.4,30.04,East,86,0.0,1.0,85,0.00,,,0.00,Wunderground v.1.15,2013-01-08 06:24:00,
2013-01-07 22:30:00,44.5,40.3,30.04,East,86,0.0,1.0,85,0.00,,,0.00,Wunderground v.1.15,2013-01-08 06:30:00,
2013-01-07 22:36:00,44.4,40.2,30.05,East,86,1.0,1.0,85,0.00,,,0.00,Wunderground v.1.15,2013-01-08 06:36:00,
2013-01-07 22:42:00,44.3,40.1,30.05,East,86,0.0,0.0,85,0.00,,,0.00,Wunderground v.1.15,2013-01-08 06:42:00,
2013-01-07 22:48:00,44.1,39.9,30.05,East,86,0.0,1.0,85,0.00,,,0.00,Wunderground v.1.15,2013-01-08 06:48:00,
2013-01-07 22:54:00,43.9,39.7,30.05,East,86,1.0,1.0,85,0.00,,,0.00,Wunderground v.1.15,2013-01-08 06:54:00,
2013-01-07 23:00:00,43.7,39.5,30.05,East,86,0.0,1.0,85,0.00,,,0.00,Wunderground v.1.15,2013-01-08 07:00:00,
2013-01-07 23:06:00,43.6,39.7,30.05,East,86,0.0,1.0,86,0.00,,,0.00,Wunderground v.1.15,2013-01-08 07:06:00,
2013-01-07 23:12:00,43.6,39.4,30.05,East,86,0.0,0.0,85,0.00,,,0.00,Wunderground v.1.15,2013-01-08 07:12:00,
2013-01-07 23:18:00,43.4,39.2,30.05,East,86,0.0,0.0,85,0.00,,,0.00,Wunderground v.1.15,2013-01-08 07:18:00,
2013-01-07 23:24:00,43.2,39.0,30.05,East,86,0.0,0.0,85,0.00,,,0.00,Wunderground v.1.15,2013-01-08 07:24:00,
2013-01-07 23:30:00,42.9,38.7,30.05,East,86,0.0,0.0,85,0.00,,,0.00,Wunderground v.1.15,2013-01-08 07:30:00,
2013-01-07 23:36:00,42.8,38.6,30.05,East,86,0.0,0.0,85,0.00,,,0.00,Wunderground v.1.15,2013-01-08 07:36:00,
2013-01-07 23:42:00,42.5,38.6,30.06,East,86,0.0,0.0,86,0.00,,,0.00,Wunderground v.1.15,2013-01-08 07:42:00,
2013-01-07 23:48:00,42.4,38.5,30.05,East,86,0.0,0.0,86,0.00,,,0.00,Wunderground v.1.15,2013-01-08 07:48:00,
2013-01-07 23:54:00,42.2,38.3,30.06,East,86,0.0,0.0,86,0.00,,,0.00,Wunderground v.1.15,2013-01-08 07:54:00,